Time;durP1;ratioP1;P1;durP2;ratioP2;P2;SDS_P1;SDS_P2;PMS_P1;PMS_P2;Temp;Humidity;BMP_temperature;BMP_pressure;BME280_temperature;BME280_humidity;BME280_pressure;Samples;Min_cycle;Max_cycle;Signal;HPM_P1;HPM_P2
2021/09/16 00:01:25;;;;;;;11.48;6.65;;;;;;;;;;1914906;75;21014;-52
2021/09/16 00:03:53;;;;;;;9.23;7.42;;;;;;;;;;1914779;74;21014;-52
2021/09/16 00:06:22;;;;;;;12.25;8.08;;;;;;;;;;1914799;75;21096;-52
2021/09/16 00:08:51;;;;;;;12.07;7.65;;;;;;;;;;1914740;74;21002;-52
2021/09/16 00:11:19;;;;;;;12.60;6.97;;;;;;;;;;1914752;74;21014;-52
2021/09/16 00:13:49;;;;;;;11.00;7.55;;;;;;;;;;1914829;74;21074;-51
2021/09/16 00:16:18;;;;;;;14.35;6.78;;;;;;;;;;1914912;74;21077;-51
2021/09/16 00:18:46;;;;;;;15.10;7.83;;;;;;;;;;1914715;74;21100;-51
2021/09/16 00:21:15;;;;;;;11.60;7.05;;;;;;;;;;1914896;75;21026;-51
2021/09/16 00:23:44;;;;;;;13.93;7.67;;;;;;;;;;1914862;75;21091;-51
2021/09/16 00:26:13;;;;;;;13.83;7.30;;;;;;;;;;1914906;75;21091;-52
2021/09/16 00:28:42;;;;;;;18.35;7.53;;;;;;;;;;1914885;74;21084;-52
2021/09/16 00:31:10;;;;;;;12.80;7.95;;;;;;;;;;1914951;75;21010;-52
2021/09/16 00:33:39;;;;;;;9.78;7.45;;;;;;;;;;1914829;75;21014;-52
2021/09/16 00:36:08;;;;;;;16.35;7.55;;;;;;;;;;1914886;75;21019;-51
2021/09/16 00:38:37;;;;;;;15.60;8.38;;;;;;;;;;1923228;74;21038;-51
2021/09/16 00:41:05;;;;;;;13.78;7.58;;;;;;;;;;1928658;74;21087;-51
2021/09/16 00:43:34;;;;;;;10.82;7.37;;;;;;;;;;1928712;74;20978;-51
2021/09/16 00:46:04;;;;;;;11.93;7.30;;;;;;;;;;1928767;74;21099;-51
2021/09/16 00:48:33;;;;;;;15.72;7.25;;;;;;;;;;1928832;74;21154;-52
2021/09/16 00:51:02;;;;;;;10.82;6.92;;;;;;;;;;1928885;74;21156;-51
2021/09/16 00:53:31;;;;;;;15.40;7.28;;;;;;;;;;1928767;74;20998;-52
2021/09/16 00:56:00;;;;;;;12.53;6.42;;;;;;;;;;1928849;74;20989;-50
2021/09/16 00:58:29;;;;;;;13.45;6.28;;;;;;;;;;1928770;74;21029;-52
2021/09/16 01:00:58;;;;;;;8.88;5.95;;;;;;;;;;1928752;74;21056;-52
2021/09/16 01:03:27;;;;;;;10.63;6.53;;;;;;;;;;1928735;74;21030;-52
2021/09/16 01:05:56;;;;;;;8.90;6.17;;;;;;;;;;1928876;74;21107;-52
2021/09/16 01:08:25;;;;;;;14.60;6.35;;;;;;;;;;1928723;74;21029;-51
2021/09/16 01:10:58;;;;;;;9.35;5.83;;;;;;;;;;1928693;74;21005;-51
2021/09/16 01:13:24;;;;;;;9.05;6.00;;;;;;;;;;1928501;74;21012;-52
2021/09/16 01:15:53;;;;;;;11.38;6.20;;;;;;;;;;1928769;74;21033;-52
2021/09/16 01:18:22;;;;;;;9.08;5.58;;;;;;;;;;1928820;74;21166;-49
2021/09/16 01:20:51;;;;;;;9.80;5.60;;;;;;;;;;1928702;74;21031;-52
2021/09/16 01:23:20;;;;;;;10.65;6.08;;;;;;;;;;1928786;74;21107;-52
2021/09/16 01:25:48;;;;;;;16.85;6.83;;;;;;;;;;1928836;74;21065;-51
2021/09/16 01:28:17;;;;;;;9.85;5.65;;;;;;;;;;1928793;74;20990;-51
2021/09/16 01:30:47;;;;;;;13.25;6.40;;;;;;;;;;1928845;74;21021;-51
2021/09/16 01:33:16;;;;;;;11.28;6.15;;;;;;;;;;1928809;74;21443;-51
2021/09/16 01:35:45;;;;;;;11.18;5.55;;;;;;;;;;1928700;74;21033;-51
2021/09/16 01:38:14;;;;;;;7.78;5.20;;;;;;;;;;1925287;74;21038;-51
2021/09/16 01:40:42;;;;;;;10.40;6.42;;;;;;;;;;1915071;75;21091;-51
2021/09/16 01:43:11;;;;;;;11.20;5.85;;;;;;;;;;1914965;74;21014;-52
2021/09/16 01:45:40;;;;;;;7.65;5.15;;;;;;;;;;1914982;75;21029;-51
2021/09/16 01:48:09;;;;;;;8.05;5.05;;;;;;;;;;1914951;75;21143;-51
2021/09/16 01:50:38;;;;;;;12.33;5.53;;;;;;;;;;1914988;74;21014;-51
2021/09/16 01:53:07;;;;;;;12.45;5.33;;;;;;;;;;1914932;75;21019;-52
2021/09/16 01:55:36;;;;;;;10.20;5.80;;;;;;;;;;1914946;75;21006;-51
2021/09/16 01:58:05;;;;;;;12.98;5.20;;;;;;;;;;1915069;75;21006;-50
2021/09/16 02:00:34;;;;;;;8.08;5.10;;;;;;;;;;1914951;75;21002;-50
2021/09/16 02:03:03;;;;;;;19.73;6.08;;;;;;;;;;1914960;75;21026;-52
2021/09/16 02:05:32;;;;;;;12.75;6.45;;;;;;;;;;1914886;75;21033;-52
2021/09/16 02:08:00;;;;;;;13.35;6.37;;;;;;;;;;1914871;75;21018;-51
2021/09/16 02:10:29;;;;;;;8.15;4.78;;;;;;;;;;1914854;75;21069;-51
2021/09/16 02:12:59;;;;;;;9.40;5.65;;;;;;;;;;1914810;75;21073;-52
2021/09/16 02:15:27;;;;;;;13.15;5.08;;;;;;;;;;1914942;74;21087;-52
2021/09/16 02:17:56;;;;;;;7.30;4.78;;;;;;;;;;1915086;75;21105;-52
2021/09/16 02:20:25;;;;;;;9.48;4.58;;;;;;;;;;1915050;75;21025;-51
2021/09/16 02:22:54;;;;;;;12.23;4.60;;;;;;;;;;1914944;75;21038;-51
2021/09/16 02:25:23;;;;;;;9.83;4.65;;;;;;;;;;1915054;74;21030;-52
2021/09/16 02:27:52;;;;;;;10.32;5.40;;;;;;;;;;1914882;74;21033;-51
2021/09/16 02:30:20;;;;;;;10.05;4.95;;;;;;;;;;1914906;75;21026;-51
2021/09/16 02:32:49;;;;;;;9.50;4.55;;;;;;;;;;1914851;75;21127;-52
2021/09/16 02:35:18;;;;;;;10.48;4.50;;;;;;;;;;1914818;75;21034;-51
2021/09/16 02:37:47;;;;;;;12.90;4.95;;;;;;;;;;1914891;75;21026;-51
2021/09/16 02:40:16;;;;;;;12.20;4.80;;;;;;;;;;1927016;74;21053;-51
2021/09/16 02:42:45;;;;;;;6.50;4.45;;;;;;;;;;1928679;74;21005;-52
2021/09/16 02:45:13;;;;;;;8.95;4.25;;;;;;;;;;1928604;74;21006;-51
2021/09/16 02:47:42;;;;;;;10.08;3.95;;;;;;;;;;1928594;74;21017;-52
2021/09/16 02:50:11;;;;;;;7.85;4.90;;;;;;;;;;1928714;74;20990;-51
2021/09/16 02:52:39;;;;;;;11.30;5.28;;;;;;;;;;1928599;74;21022;-51
2021/09/16 02:55:09;;;;;;;10.48;4.50;;;;;;;;;;1928560;74;21612;-52
2021/09/16 02:57:38;;;;;;;12.05;4.87;;;;;;;;;;1928684;74;21018;-52
2021/09/16 03:00:07;;;;;;;10.13;4.00;;;;;;;;;;1928579;74;21037;-51
2021/09/16 03:02:36;;;;;;;13.58;4.55;;;;;;;;;;1928690;74;21002;-51
2021/09/16 03:05:05;;;;;;;11.88;4.62;;;;;;;;;;1928692;74;21021;-53
2021/09/16 03:07:34;;;;;;;9.35;4.28;;;;;;;;;;1928530;74;21083;-52
2021/09/16 03:10:03;;;;;;;12.03;4.78;;;;;;;;;;1928683;74;21025;-52
2021/09/16 03:12:31;;;;;;;17.02;5.58;;;;;;;;;;1928680;74;21091;-50
2021/09/16 03:15:00;;;;;;;10.28;4.45;;;;;;;;;;1928579;74;21083;-52
2021/09/16 03:17:29;;;;;;;10.40;3.95;;;;;;;;;;1928578;74;21080;-52
2021/09/16 03:19:58;;;;;;;15.05;4.50;;;;;;;;;;1928661;74;21025;-52
2021/09/16 03:22:27;;;;;;;7.70;4.08;;;;;;;;;;1928654;74;21026;-51
2021/09/16 03:24:56;;;;;;;11.95;4.47;;;;;;;;;;1928591;74;21033;-52
2021/09/16 03:27:25;;;;;;;8.55;4.67;;;;;;;;;;1928528;74;21041;-51
2021/09/16 03:29:53;;;;;;;12.40;4.50;;;;;;;;;;1928586;74;21099;-52
2021/09/16 03:32:22;;;;;;;6.72;3.70;;;;;;;;;;1928585;74;21072;-51
2021/09/16 03:34:51;;;;;;;9.48;4.40;;;;;;;;;;1928624;74;21093;-51
2021/09/16 03:37:20;;;;;;;11.95;4.08;;;;;;;;;;1928529;74;21030;-51
2021/09/16 03:39:49;;;;;;;10.00;3.67;;;;;;;;;;1928441;74;21108;-52
2021/09/16 03:42:18;;;;;;;9.03;4.22;;;;;;;;;;1928577;74;21030;-51
2021/09/16 03:44:47;;;;;;;11.15;4.10;;;;;;;;;;1928586;74;21029;-52
2021/09/16 03:47:16;;;;;;;21.27;4.70;;;;;;;;;;1928559;74;21092;-52
2021/09/16 03:49:44;;;;;;;8.68;4.35;;;;;;;;;;1928605;74;21091;-52
2021/09/16 03:52:13;;;;;;;8.38;4.22;;;;;;;;;;1928495;74;21029;-51
2021/09/16 03:54:42;;;;;;;10.90;4.92;;;;;;;;;;1928467;74;21029;-51
2021/09/16 03:57:11;;;;;;;11.08;5.67;;;;;;;;;;1928449;74;21095;-51
2021/09/16 03:59:40;;;;;;;12.20;6.00;;;;;;;;;;1928453;74;21099;-52
2021/09/16 04:02:09;;;;;;;11.97;5.72;;;;;;;;;;1928489;74;21134;-50
2021/09/16 04:04:38;;;;;;;10.50;4.95;;;;;;;;;;1928585;74;21033;-51
2021/09/16 04:07:07;;;;;;;14.90;5.55;;;;;;;;;;1928433;74;21029;-52
2021/09/16 04:09:36;;;;;;;12.18;5.97;;;;;;;;;;1928568;74;21095;-50
2021/09/16 04:12:05;;;;;;;13.50;5.78;;;;;;;;;;1928490;74;21029;-51
2021/09/16 04:14:34;;;;;;;14.10;5.35;;;;;;;;;;1928599;74;21025;-51
2021/09/16 04:17:02;;;;;;;11.90;6.00;;;;;;;;;;1928542;74;21029;-51
2021/09/16 04:19:31;;;;;;;10.08;5.17;;;;;;;;;;1928510;74;21030;-52
2021/09/16 04:22:00;;;;;;;16.95;5.05;;;;;;;;;;1928694;74;21057;-51
2021/09/16 04:24:29;;;;;;;11.08;4.85;;;;;;;;;;1928424;74;21006;-52
2021/09/16 04:26:58;;;;;;;9.75;5.42;;;;;;;;;;1928489;74;21005;-51
2021/09/16 04:29:26;;;;;;;11.80;6.50;;;;;;;;;;1928537;74;21013;-51
2021/09/16 04:31:56;;;;;;;17.10;6.00;;;;;;;;;;1928473;74;21014;-52
2021/09/16 04:34:25;;;;;;;12.65;5.35;;;;;;;;;;1928456;74;21009;-49
2021/09/16 04:36:53;;;;;;;16.27;5.33;;;;;;;;;;1928522;74;21013;-51
2021/09/16 04:39:22;;;;;;;18.65;6.12;;;;;;;;;;1928398;74;21013;-50
2021/09/16 04:41:51;;;;;;;17.80;5.78;;;;;;;;;;1928515;74;21029;-51
2021/09/16 04:44:19;;;;;;;11.95;4.90;;;;;;;;;;1928619;74;21069;-52
2021/09/16 04:46:48;;;;;;;12.35;5.55;;;;;;;;;;1928612;74;21091;-51
2021/09/16 04:49:17;;;;;;;11.80;5.08;;;;;;;;;;1928435;74;21025;-52
2021/09/16 04:51:46;;;;;;;10.53;5.28;;;;;;;;;;1928528;74;21033;-51
2021/09/16 04:54:15;;;;;;;10.68;5.17;;;;;;;;;;1928588;74;21091;-50
2021/09/16 04:56:43;;;;;;;9.60;5.00;;;;;;;;;;1928468;74;21030;-52
2021/09/16 04:59:12;;;;;;;14.75;5.55;;;;;;;;;;1928474;74;21145;-52
2021/09/16 05:01:41;;;;;;;11.90;6.05;;;;;;;;;;1928444;74;21091;-51
2021/09/16 05:04:11;;;;;;;14.98;4.90;;;;;;;;;;1928497;74;21069;-52
2021/09/16 05:06:40;;;;;;;16.37;4.80;;;;;;;;;;1928598;74;21053;-51
2021/09/16 05:09:09;;;;;;;14.33;6.92;;;;;;;;;;1928523;74;21076;-51
2021/09/16 05:11:45;;;;;;;21.02;7.62;;;;;;;;;;1928526;74;21006;-51
2021/09/16 05:14:14;;;;;;;18.50;4.83;;;;;;;;;;1928439;74;21326;-51
2021/09/16 05:16:43;;;;;;;7.37;3.77;;;;;;;;;;1928435;74;21021;-52
2021/09/16 05:19:11;;;;;;;11.20;3.33;;;;;;;;;;1928484;74;20997;-51
2021/09/16 05:21:40;;;;;;;9.65;3.50;;;;;;;;;;1928382;74;21071;-51
2021/09/16 05:24:09;;;;;;;9.43;3.65;;;;;;;;;;1928354;74;21025;-52
2021/09/16 05:26:38;;;;;;;5.45;3.12;;;;;;;;;;1928397;74;21088;-52
2021/09/16 05:29:07;;;;;;;10.00;3.77;;;;;;;;;;1928247;74;21518;-52
2021/09/16 05:31:36;;;;;;;7.67;3.33;;;;;;;;;;1928586;74;21021;-52
2021/09/16 05:34:05;;;;;;;6.15;3.42;;;;;;;;;;1928447;74;21025;-50
2021/09/16 05:36:34;;;;;;;9.23;3.40;;;;;;;;;;1928420;74;21037;-52
2021/09/16 05:39:03;;;;;;;10.45;3.98;;;;;;;;;;1928445;74;21025;-51
2021/09/16 05:41:32;;;;;;;5.90;3.90;;;;;;;;;;1916572;74;21014;-51
2021/09/16 05:44:01;;;;;;;7.10;3.00;;;;;;;;;;1914907;75;21022;-51
2021/09/16 05:46:33;;;;;;;9.33;5.22;;;;;;;;;;1914839;74;21069;-52
2021/09/16 05:49:02;;;;;;;12.10;4.90;;;;;;;;;;1914846;75;21123;-51
2021/09/16 05:51:31;;;;;;;11.75;4.15;;;;;;;;;;1914792;75;21079;-52
2021/09/16 05:54:00;;;;;;;10.25;3.80;;;;;;;;;;1914799;74;21081;-52
2021/09/16 05:56:28;;;;;;;5.67;3.52;;;;;;;;;;1914791;75;21026;-51
2021/09/16 05:58:57;;;;;;;8.20;3.65;;;;;;;;;;1914817;74;21092;-53
2021/09/16 06:01:26;;;;;;;7.00;3.40;;;;;;;;;;1914841;75;21030;-52
2021/09/16 06:03:55;;;;;;;10.93;4.08;;;;;;;;;;1914795;75;21092;-51
2021/09/16 06:06:24;;;;;;;20.70;6.58;;;;;;;;;;1915039;75;21092;-51
2021/09/16 06:08:53;;;;;;;10.65;4.70;;;;;;;;;;1914777;75;21042;-53
2021/09/16 06:11:22;;;;;;;16.42;5.33;;;;;;;;;;1914783;75;21084;-52
2021/09/16 06:13:51;;;;;;;7.95;3.50;;;;;;;;;;1914789;74;21115;-52
2021/09/16 06:16:19;;;;;;;16.90;4.08;;;;;;;;;;1914911;75;21122;-50
2021/09/16 06:18:48;;;;;;;20.90;5.03;;;;;;;;;;1914853;75;21030;-50
2021/09/16 06:21:18;;;;;;;12.47;4.37;;;;;;;;;;1914760;75;21086;-52
2021/09/16 06:23:47;;;;;;;9.83;3.08;;;;;;;;;;1914902;75;21022;-52
2021/09/16 06:26:15;;;;;;;9.80;4.72;;;;;;;;;;1914822;74;21022;-50
2021/09/16 06:28:44;;;;;;;10.70;3.80;;;;;;;;;;1914972;75;21084;-52
2021/09/16 06:31:13;;;;;;;18.00;5.00;;;;;;;;;;1914775;74;21026;-51
2021/09/16 06:33:42;;;;;;;6.67;2.90;;;;;;;;;;1914834;74;21025;-52
2021/09/16 06:36:11;;;;;;;6.50;2.55;;;;;;;;;;1914806;75;21018;-52
2021/09/16 06:38:39;;;;;;;7.72;3.33;;;;;;;;;;1914891;75;21053;-52
2021/09/16 06:41:09;;;;;;;5.83;3.25;;;;;;;;;;1914631;74;21526;-51
2021/09/16 06:43:38;;;;;;;5.85;3.60;;;;;;;;;;1914864;75;21010;-52
2021/09/16 06:46:06;;;;;;;9.00;3.55;;;;;;;;;;1914736;74;21030;-52
2021/09/16 06:48:35;;;;;;;12.20;3.65;;;;;;;;;;1914766;74;21029;-52
2021/09/16 06:51:04;;;;;;;8.78;3.70;;;;;;;;;;1914871;74;21025;-51
2021/09/16 06:53:34;;;;;;;9.45;3.05;;;;;;;;;;1914907;75;21026;-52
2021/09/16 06:56:03;;;;;;;11.48;3.37;;;;;;;;;;1914746;75;21022;-51
2021/09/16 06:58:32;;;;;;;7.75;4.08;;;;;;;;;;1914792;74;21073;-53
2021/09/16 07:01:00;;;;;;;8.78;4.60;;;;;;;;;;1914754;75;21058;-53
2021/09/16 07:03:29;;;;;;;13.45;4.67;;;;;;;;;;1914907;75;21092;-52
2021/09/16 07:05:58;;;;;;;11.20;4.03;;;;;;;;;;1914818;75;21087;-52
2021/09/16 07:08:27;;;;;;;9.50;4.40;;;;;;;;;;1914862;75;21002;-52
2021/09/16 07:10:56;;;;;;;7.78;3.50;;;;;;;;;;1914822;75;21002;-53
2021/09/16 07:13:25;;;;;;;6.12;3.20;;;;;;;;;;1914781;75;21038;-53
2021/09/16 07:15:53;;;;;;;8.80;3.92;;;;;;;;;;1914608;74;21002;-52
2021/09/16 07:18:22;;;;;;;13.50;4.60;;;;;;;;;;1914875;74;21014;-52
2021/09/16 07:20:51;;;;;;;13.53;4.58;;;;;;;;;;1914939;75;21151;-51
2021/09/16 07:23:20;;;;;;;12.85;3.85;;;;;;;;;;1914923;75;21135;-52
2021/09/16 07:25:48;;;;;;;5.87;3.70;;;;;;;;;;1914715;75;20990;-52
2021/09/16 07:28:17;;;;;;;5.65;3.15;;;;;;;;;;1914699;75;21064;-52
2021/09/16 07:30:46;;;;;;;10.55;5.83;;;;;;;;;;1914684;75;21025;-50
2021/09/16 07:33:15;;;;;;;9.33;3.72;;;;;;;;;;1914713;74;21030;-53
2021/09/16 07:35:44;;;;;;;5.72;3.00;;;;;;;;;;1913496;74;21025;-49
2021/09/16 07:38:14;;;;;;;9.58;3.50;;;;;;;;;;1914040;74;21084;-51
2021/09/16 07:40:42;;;;;;;9.48;3.35;;;;;;;;;;1915478;74;21088;-48
2021/09/16 07:43:11;;;;;;;8.33;3.98;;;;;;;;;;1923993;74;20994;-47
2021/09/16 07:45:41;;;;;;;11.53;3.12;;;;;;;;;;1924161;74;21097;-49
2021/09/16 07:48:09;;;;;;;8.13;3.37;;;;;;;;;;1924199;74;21030;-46
2021/09/16 07:50:38;;;;;;;6.28;3.00;;;;;;;;;;1924027;74;21318;-48
2021/09/16 07:53:09;;;;;;;11.85;3.55;;;;;;;;;;1924081;74;21190;-45
2021/09/16 07:55:37;;;;;;;5.67;2.95;;;;;;;;;;1924142;74;21472;-50
2021/09/16 07:58:06;;;;;;;6.53;3.47;;;;;;;;;;1923991;73;21022;-49
2021/09/16 08:00:35;;;;;;;8.20;2.92;;;;;;;;;;1924191;74;21092;-49
2021/09/16 08:03:04;;;;;;;6.65;2.87;;;;;;;;;;1924102;74;21084;-47
2021/09/16 08:05:33;;;;;;;7.95;3.15;;;;;;;;;;1923954;74;21006;-47
2021/09/16 08:08:01;;;;;;;7.58;3.15;;;;;;;;;;1924168;74;21066;-50
2021/09/16 08:10:30;;;;;;;5.28;2.87;;;;;;;;;;1923927;74;21135;-48
2021/09/16 08:12:59;;;;;;;6.97;3.20;;;;;;;;;;1923965;73;21052;-50
2021/09/16 08:15:28;;;;;;;10.90;6.85;;;;;;;;;;1923931;74;21150;-48
2021/09/16 08:17:58;;;;;;;6.10;3.00;;;;;;;;;;1924210;74;21025;-49
2021/09/16 08:20:27;;;;;;;13.65;4.85;;;;;;;;;;1892162;74;21077;-50
2021/09/16 08:22:56;;;;;;;8.65;2.80;;;;;;;;;;1884408;75;21030;-46
2021/09/16 08:25:25;;;;;;;6.95;2.35;;;;;;;;;;1884439;76;21092;-48
2021/09/16 08:27:54;;;;;;;8.15;3.27;;;;;;;;;;1884240;76;21073;-47
2021/09/16 08:30:22;;;;;;;8.33;3.00;;;;;;;;;;1884210;75;21057;-47
2021/09/16 08:32:51;;;;;;;9.10;3.45;;;;;;;;;;1912953;75;21100;-45
2021/09/16 08:35:20;;;;;;;7.28;3.27;;;;;;;;;;1917234;75;21083;-48
2021/09/16 08:37:49;;;;;;;6.28;3.00;;;;;;;;;;1917121;75;21089;-47
2021/09/16 08:40:19;;;;;;;6.47;3.10;;;;;;;;;;1917206;74;21027;-48
2021/09/16 08:42:48;;;;;;;12.47;2.77;;;;;;;;;;1922511;73;21070;-48
2021/09/16 08:45:17;;;;;;;7.45;2.90;;;;;;;;;;1924062;74;20995;-49
2021/09/16 08:47:48;;;;;;;7.55;3.22;;;;;;;;;;1923820;74;20999;-47
2021/09/16 08:50:18;;;;;;;6.37;3.47;;;;;;;;;;1923838;74;21026;-47
2021/09/16 08:52:47;;;;;;;9.55;3.85;;;;;;;;;;1923934;74;21041;-47
2021/09/16 08:55:17;;;;;;;9.55;3.17;;;;;;;;;;1923881;74;20987;-46
2021/09/16 08:57:47;;;;;;;10.50;3.52;;;;;;;;;;1923839;74;22097;-49
2021/09/16 09:00:19;;;;;;;6.60;3.47;;;;;;;;;;1924084;74;21074;-49
2021/09/16 09:02:49;;;;;;;15.83;3.50;;;;;;;;;;1923972;74;21023;-49
2021/09/16 09:05:18;;;;;;;9.98;4.67;;;;;;;;;;1923861;74;21018;-50
2021/09/16 09:07:48;;;;;;;13.65;4.05;;;;;;;;;;1923932;74;21019;-50
2021/09/16 09:10:33;;;;;;;6.45;3.55;;;;;;;;;;1924130;74;21062;-49
2021/09/16 09:13:02;;;;;;;12.98;4.72;;;;;;;;;;1924348;74;21015;-49
2021/09/16 09:15:31;;;;;;;6.92;3.80;;;;;;;;;;1924051;74;21136;-48
2021/09/16 09:18:13;;;;;;;11.12;3.50;;;;;;;;;;1924138;74;21015;-46
2021/09/16 09:21:00;;;;;;;12.50;4.08;;;;;;;;;;1924152;74;21050;-47
2021/09/16 09:23:31;;;;;;;5.67;3.75;;;;;;;;;;1924031;74;21101;-49
2021/09/16 09:26:01;;;;;;;8.93;4.17;;;;;;;;;;1923965;74;21524;-47
2021/09/16 09:28:33;;;;;;;11.70;3.98;;;;;;;;;;1923900;74;21329;-48
2021/09/16 09:31:03;;;;;;;15.75;3.90;;;;;;;;;;1924049;74;21524;-47
2021/09/16 09:33:33;;;;;;;7.17;3.27;;;;;;;;;;1922461;74;21420;-45
2021/09/16 09:36:04;;;;;;;11.28;4.03;;;;;;;;;;1923876;74;21143;-47
2021/09/16 09:38:36;;;;;;;8.75;3.20;;;;;;;;;;1922884;74;21147;-50
2021/09/16 09:41:04;;;;;;;13.58;3.52;;;;;;;;;;1922657;74;21018;-47
2021/09/16 09:43:35;;;;;;;6.92;3.85;;;;;;;;;;1923915;74;21105;-49
2021/09/16 09:46:08;;;;;;;6.53;3.27;;;;;;;;;;1924165;74;21018;-47
2021/09/16 09:48:47;;;;;;;13.45;3.30;;;;;;;;;;1923453;74;21074;-47
2021/09/16 09:51:16;;;;;;;8.60;3.22;;;;;;;;;;1924022;74;21219;-48
2021/09/16 09:53:45;;;;;;;9.65;4.45;;;;;;;;;;1924198;74;21027;-48
2021/09/16 09:56:18;;;;;;;8.50;3.27;;;;;;;;;;1924001;74;21027;-49
2021/09/16 09:58:47;;;;;;;10.88;3.12;;;;;;;;;;1924214;74;21093;-50
2021/09/16 10:01:28;;;;;;;3.37;2.33;;;;;;;;;;1924090;74;21094;-48
2021/09/16 10:03:57;;;;;;;8.38;3.52;;;;;;;;;;1924094;74;21539;-48
2021/09/16 10:06:36;;;;;;;6.90;3.10;;;;;;;;;;1923964;74;21144;-47
2021/09/16 10:09:09;;;;;;;7.35;3.30;;;;;;;;;;1923432;73;21041;-50
2021/09/16 10:11:44;;;;;;;12.18;3.85;;;;;;;;;;1924008;74;21140;-48
2021/09/16 10:14:13;;;;;;;5.67;2.83;;;;;;;;;;1924183;74;21430;-48
2021/09/16 10:16:42;;;;;;;7.87;3.17;;;;;;;;;;1923999;74;21062;-48
2021/09/16 10:19:11;;;;;;;9.45;3.05;;;;;;;;;;1923934;74;21334;-47
2021/09/16 10:21:40;;;;;;;7.87;2.90;;;;;;;;;;1924259;74;21019;-47
2021/09/16 10:24:11;;;;;;;8.73;2.70;;;;;;;;;;1924047;74;21088;-50
2021/09/16 10:26:41;;;;;;;13.05;3.22;;;;;;;;;;1923907;74;21027;-50
2021/09/16 10:29:26;;;;;;;7.28;2.55;;;;;;;;;;1924175;74;21473;-51
2021/09/16 10:31:59;;;;;;;5.40;2.52;;;;;;;;;;1831642;77;21258;-47
2021/09/16 10:34:45;;;;;;;9.25;2.85;;;;;;;;;;1846690;75;21081;-47
2021/09/16 10:37:16;;;;;;;5.92;2.85;;;;;;;;;;1890836;76;21172;-46
2021/09/16 10:39:45;;;;;;;10.45;3.10;;;;;;;;;;1890578;74;21856;-47
2021/09/16 10:42:14;;;;;;;11.50;3.65;;;;;;;;;;1890859;74;21125;-46
2021/09/16 10:44:44;;;;;;;8.03;2.87;;;;;;;;;;1891295;74;21104;-48
2021/09/16 10:47:17;;;;;;;6.20;2.52;;;;;;;;;;1890994;76;21159;-46
2021/09/16 10:49:46;;;;;;;8.88;3.20;;;;;;;;;;1890957;75;21077;-48
2021/09/16 10:52:16;;;;;;;16.95;8.20;;;;;;;;;;1891144;74;21117;-49
2021/09/16 10:54:49;;;;;;;16.97;6.85;;;;;;;;;;1890981;75;21054;-47
2021/09/16 10:57:18;;;;;;;5.83;3.10;;;;;;;;;;1891157;76;21041;-49
2021/09/16 10:59:52;;;;;;;14.23;7.97;;;;;;;;;;1891148;75;21112;-47
2021/09/16 11:02:22;;;;;;;16.70;5.87;;;;;;;;;;1891074;75;21022;-47
2021/09/16 11:04:58;;;;;;;8.68;4.15;;;;;;;;;;1890594;74;21022;-49
2021/09/16 11:07:39;;;;;;;10.70;3.92;;;;;;;;;;1891102;75;21030;-50
2021/09/16 11:10:21;;;;;;;7.87;3.30;;;;;;;;;;1891230;74;21089;-49
2021/09/16 11:12:51;;;;;;;12.68;4.10;;;;;;;;;;1891254;75;21022;-50
2021/09/16 11:15:27;;;;;;;5.87;3.20;;;;;;;;;;1888749;74;21034;-48
2021/09/16 11:18:06;;;;;;;16.60;4.42;;;;;;;;;;1891628;75;20994;-48
2021/09/16 11:20:35;;;;;;;14.87;5.62;;;;;;;;;;1891997;75;21030;-49
2021/09/16 11:23:04;;;;;;;11.88;3.77;;;;;;;;;;1891949;75;21453;-47
2021/09/16 11:25:37;;;;;;;7.87;3.50;;;;;;;;;;1891967;74;21089;-50
2021/09/16 11:28:06;;;;;;;19.30;6.80;;;;;;;;;;1890898;74;21010;-51
2021/09/16 11:30:38;;;;;;;15.40;8.53;;;;;;;;;;1891923;75;21010;-47
2021/09/16 11:33:08;;;;;;;17.40;8.58;;;;;;;;;;1891906;76;21042;-49
2021/09/16 11:35:37;;;;;;;9.95;5.08;;;;;;;;;;1891869;76;21104;-50
2021/09/16 11:38:07;;;;;;;8.43;4.05;;;;;;;;;;1891864;74;21100;-49
2021/09/16 11:40:36;;;;;;;13.50;4.03;;;;;;;;;;1891824;75;21473;-49
2021/09/16 11:43:07;;;;;;;11.35;4.50;;;;;;;;;;1885226;74;21446;-50
2021/09/16 11:45:39;;;;;;;7.10;4.20;;;;;;;;;;1872855;76;21458;-48
2021/09/16 11:48:16;;;;;;;21.20;11.15;;;;;;;;;;1872787;75;21019;-50
2021/09/16 11:50:46;;;;;;;13.35;7.60;;;;;;;;;;1872830;77;21462;-50
2021/09/16 11:53:18;;;;;;;38.10;23.80;;;;;;;;;;1872890;75;21031;-48
2021/09/16 11:55:47;;;;;;;18.75;11.08;;;;;;;;;;1872709;76;21063;-49
2021/09/16 11:58:20;;;;;;;18.27;6.95;;;;;;;;;;1872902;77;21102;-49
2021/09/16 12:00:50;;;;;;;9.70;4.58;;;;;;;;;;1872778;75;21027;-50
2021/09/16 12:03:20;;;;;;;15.40;5.08;;;;;;;;;;1872795;75;21018;-49
2021/09/16 12:05:52;;;;;;;17.65;5.03;;;;;;;;;;1872667;75;21054;-49
2021/09/16 12:08:25;;;;;;;17.42;6.33;;;;;;;;;;1872765;75;21015;-48
2021/09/16 12:10:55;;;;;;;20.37;6.50;;;;;;;;;;1872788;76;21023;-47
2021/09/16 12:13:34;;;;;;;16.75;5.28;;;;;;;;;;1872770;75;21031;-47
2021/09/16 12:16:10;;;;;;;21.87;8.83;;;;;;;;;;1872787;75;21089;-47
2021/09/16 12:18:40;;;;;;;12.00;4.92;;;;;;;;;;1872801;77;21003;-50
2021/09/16 12:21:09;;;;;;;14.80;4.65;;;;;;;;;;1872883;75;21462;-47
2021/09/16 12:23:39;;;;;;;14.83;7.40;;;;;;;;;;1872916;77;21031;-50
2021/09/16 12:26:09;;;;;;;11.53;6.53;;;;;;;;;;1872875;77;21058;-50
2021/09/16 12:28:56;;;;;;;19.30;6.17;;;;;;;;;;1872880;75;21081;-47
2021/09/16 12:31:26;;;;;;;8.85;4.60;;;;;;;;;;1872827;77;21047;-49
2021/09/16 12:33:59;;;;;;;6.70;3.67;;;;;;;;;;1872764;75;21128;-50
2021/09/16 12:36:28;;;;;;;11.18;3.70;;;;;;;;;;1872541;76;21094;-46
2021/09/16 12:39:05;;;;;;;12.55;3.58;;;;;;;;;;1872870;75;21039;-48
2021/09/16 12:41:35;;;;;;;7.33;3.80;;;;;;;;;;1872924;75;21458;-49
2021/09/16 12:44:05;;;;;;;8.25;3.20;;;;;;;;;;1878795;75;21538;-50
2021/09/16 12:46:51;;;;;;;7.05;4.20;;;;;;;;;;1882885;75;21018;-49
2021/09/16 12:49:27;;;;;;;10.75;4.05;;;;;;;;;;1883001;75;21001;-46
2021/09/16 12:52:00;;;;;;;11.90;4.12;;;;;;;;;;1882958;75;21025;-49
2021/09/16 12:54:29;;;;;;;10.10;4.30;;;;;;;;;;1881966;76;21103;-49
2021/09/16 12:56:59;;;;;;;19.37;5.65;;;;;;;;;;1882928;75;21053;-50
2021/09/16 12:59:28;;;;;;;10.78;4.85;;;;;;;;;;1883041;75;21084;-50
2021/09/16 13:01:58;;;;;;;10.63;4.03;;;;;;;;;;1882979;75;20993;-47
2021/09/16 13:04:27;;;;;;;21.82;8.03;;;;;;;;;;1874259;76;21013;-49
2021/09/16 13:06:56;;;;;;;15.08;5.47;;;;;;;;;;1883045;75;21107;-49
2021/09/16 13:09:31;;;;;;;18.65;8.85;;;;;;;;;;1882879;75;21029;-49
2021/09/16 13:12:15;;;;;;;16.42;6.85;;;;;;;;;;1882938;76;21030;-50
2021/09/16 13:14:44;;;;;;;24.37;8.53;;;;;;;;;;1883119;75;21029;-48
2021/09/16 13:17:13;;;;;;;12.95;5.35;;;;;;;;;;1882993;76;21025;-50
2021/09/16 13:19:43;;;;;;;11.20;5.35;;;;;;;;;;1883010;75;21036;-48
2021/09/16 13:22:12;;;;;;;13.88;7.45;;;;;;;;;;1881417;75;21134;-49
2021/09/16 13:24:41;;;;;;;15.83;5.62;;;;;;;;;;1882968;75;20997;-46
2021/09/16 13:27:09;;;;;;;14.98;4.78;;;;;;;;;;1883040;75;21038;-47
2021/09/16 13:29:39;;;;;;;13.48;4.50;;;;;;;;;;1883023;76;21033;-51
2021/09/16 13:32:07;;;;;;;21.00;6.47;;;;;;;;;;1883035;75;21002;-49
2021/09/16 13:34:36;;;;;;;14.20;5.42;;;;;;;;;;1882985;75;21073;-50
2021/09/16 13:37:05;;;;;;;11.22;4.15;;;;;;;;;;1882911;75;21022;-46
2021/09/16 13:39:34;;;;;;;9.70;4.85;;;;;;;;;;1883001;76;21033;-50
2021/09/16 13:42:03;;;;;;;18.23;6.50;;;;;;;;;;1882909;75;21143;-50
2021/09/16 13:44:32;;;;;;;20.90;11.08;;;;;;;;;;1876764;75;21106;-49
2021/09/16 13:47:02;;;;;;;25.57;8.08;;;;;;;;;;1872943;75;21039;-48
2021/09/16 13:49:30;;;;;;;19.98;9.98;;;;;;;;;;1872764;76;21085;-49
2021/09/16 13:51:59;;;;;;;30.15;15.90;;;;;;;;;;1872730;75;21081;-47
2021/09/16 13:54:29;;;;;;;16.93;9.15;;;;;;;;;;1872751;75;21113;-48
2021/09/16 13:56:57;;;;;;;14.53;7.90;;;;;;;;;;1872839;75;21092;-49
2021/09/16 13:59:26;;;;;;;8.60;4.47;;;;;;;;;;1872871;76;21039;-49
2021/09/16 14:01:55;;;;;;;14.93;6.28;;;;;;;;;;1873017;75;21158;-47
2021/09/16 14:04:24;;;;;;;13.90;6.03;;;;;;;;;;1872908;76;21047;-49
2021/09/16 14:06:53;;;;;;;14.35;4.60;;;;;;;;;;1872941;75;21039;-47
2021/09/16 14:09:23;;;;;;;7.60;4.15;;;;;;;;;;1872906;75;21105;-51
2021/09/16 14:11:52;;;;;;;13.83;4.85;;;;;;;;;;1873071;75;21410;-48
2021/09/16 14:14:20;;;;;;;17.48;5.80;;;;;;;;;;1872930;75;21108;-48
2021/09/16 14:16:49;;;;;;;13.62;5.62;;;;;;;;;;1872944;77;21039;-51
2021/09/16 14:19:18;;;;;;;17.02;5.20;;;;;;;;;;1872995;76;21038;-50
2021/09/16 14:21:48;;;;;;;10.60;5.40;;;;;;;;;;1873080;75;21035;-51
2021/09/16 14:24:17;;;;;;;12.50;5.58;;;;;;;;;;1872909;75;21104;-50
2021/09/16 14:26:45;;;;;;;22.77;9.45;;;;;;;;;;1872987;76;21031;-49
2021/09/16 14:29:14;;;;;;;23.57;11.68;;;;;;;;;;1872873;76;21104;-49
2021/09/16 14:31:43;;;;;;;32.65;13.08;;;;;;;;;;1873041;77;21051;-50
2021/09/16 14:34:12;;;;;;;26.82;11.55;;;;;;;;;;1872953;76;21128;-51
2021/09/16 14:36:43;;;;;;;23.55;11.83;;;;;;;;;;1873159;76;21036;-49
2021/09/16 14:39:12;;;;;;;22.70;10.90;;;;;;;;;;1872911;75;21136;-51
2021/09/16 14:41:40;;;;;;;26.90;13.13;;;;;;;;;;1873027;75;21105;-49
2021/09/16 14:44:09;;;;;;;25.08;12.03;;;;;;;;;;1872951;75;21062;-51
2021/09/16 14:46:38;;;;;;;22.85;10.23;;;;;;;;;;1873152;75;21023;-49
2021/09/16 14:49:07;;;;;;;17.35;10.35;;;;;;;;;;1872930;75;21070;-50